»·PEaware :: UAL1399 KSFO-KRNO

UAL1399 :: KSFO-KRNO

FLIGHT INFORMATION

Flight Status: Arrived
Operator:
United Airlines
More flights by this operator :: More flights under this callsign
Pilot: David C. (16084)
Aircraft: AIRBUS A320
(A320)
More flights by this aircraft type
Origin: KSFO San Francisco Intl
United States
Destination: KRNO Reno/Tahoe Intl
United States
More flights between these airports :: More routes between these airports
Route: +TRUKN2 ORRCA HOBOA TARVR TARVR1
File this flight plan on PilotEdge
Remarks:
Altitude:
(Current/Filed)
25,000ft
Speed:
(Current/Filed)
476kts
Departed: 30-Sep-20 04:50 PM
Arrived: 30-Sep-20 05:34 PM
Distance/Time
Traveled:
167nm/0:44
Distance/Time
To Go:
Arrived

Flight Plot

Page will automatically refresh every two minutes.

Flight plan parsing failed; only flown route is shown


Map Options




Map Legend


Flown Route
Filed Route
Departure Airport
Arrival Airport
Navaid (VOR, NDB)
Fix

Horizontal Profiles

Position Reports

Time Latitude Longitude Heading Altitude Ground
Speed
30-Sep-20 16:23 37.619195 -122.383546 291 18ft 0kts
30-Sep-20 16:24 37.619195 -122.383546 291 18ft 0kts
30-Sep-20 16:25 37.619195 -122.383546 291 18ft 0kts
30-Sep-20 16:26 37.619195 -122.383546 291 18ft 0kts
30-Sep-20 16:27 37.619195 -122.383546 291 18ft 0kts
30-Sep-20 16:28 37.619195 -122.383546 291 18ft 0kts
30-Sep-20 16:29 37.619195 -122.383546 291 18ft 0kts
30-Sep-20 16:30 37.619195 -122.383546 291 18ft 0kts
30-Sep-20 16:31 37.619195 -122.383546 291 18ft 0kts
30-Sep-20 16:32 37.619195 -122.383546 291 18ft 0kts
30-Sep-20 16:33 37.619195 -122.383546 291 18ft 0kts
30-Sep-20 16:34 37.619195 -122.383546 291 18ft 0kts
30-Sep-20 16:35 37.619195 -122.383546 291 18ft 0kts
30-Sep-20 16:36 37.619195 -122.383546 291 18ft 0kts
30-Sep-20 16:37 37.619195 -122.383546 291 18ft 0kts
30-Sep-20 16:38 37.619026 -122.383089 315 18ft 2kts
30-Sep-20 16:39 37.618564 -122.382915 14 18ft 1kts
30-Sep-20 16:40 37.618542 -122.382922 13 18ft 0kts
30-Sep-20 16:41 37.618542 -122.382922 13 18ft 0kts
30-Sep-20 16:42 37.618987 -122.382672 28 18ft 0kts
30-Sep-20 16:43 37.618987 -122.382672 28 18ft 0kts
30-Sep-20 16:44 37.618633 -122.380008 138 19ft 18kts
30-Sep-20 16:45 37.613390 -122.381812 207 17ft 23kts
30-Sep-20 16:46 37.608477 -122.383919 116 18ft 0kts
30-Sep-20 16:47 37.608477 -122.383920 116 18ft 0kts
30-Sep-20 16:48 37.608477 -122.383920 116 18ft 0kts
30-Sep-20 16:49 37.613141 -122.379484 28 17ft 113kts
30-Sep-20 16:50 37.652066 -122.339092 53 2249ft 220kts
30-Sep-20 16:51 37.688418 -122.272261 53 5312ft 260kts
30-Sep-20 16:52 37.738231 -122.195925 33 8377ft 298kts
30-Sep-20 16:53 37.808662 -122.132296 34 11280ft 335kts
30-Sep-20 16:54 37.886986 -122.061329 34 14108ft 357kts
30-Sep-20 16:55 37.969071 -121.986807 34 16714ft 372kts
30-Sep-20 16:56 38.054427 -121.909068 34 18917ft 382kts
30-Sep-20 16:57 38.143638 -121.827545 34 20070ft 418kts
30-Sep-20 16:58 38.240001 -121.739235 34 21822ft 431kts
30-Sep-20 16:59 38.338367 -121.648797 34 23462ft 443kts
30-Sep-20 17:00 38.438947 -121.555251 38 24918ft 453kts
30-Sep-20 17:01 38.532853 -121.437906 44 24997ft 492kts
30-Sep-20 17:03 38.631737 -121.311481 44 25000ft 506kts
30-Sep-20 17:04 38.731326 -121.183654 44 25006ft 506kts
30-Sep-20 17:05 38.830271 -121.056055 44 25121ft 506kts
30-Sep-20 17:06 38.929325 -120.927773 44 25105ft 507kts
30-Sep-20 17:07 39.029200 -120.797854 43 25227ft 518kts
30-Sep-20 17:08 39.128361 -120.668330 43 25396ft 528kts
30-Sep-20 17:09 39.230740 -120.534077 43 23589ft 531kts
30-Sep-20 17:10 39.333832 -120.398225 43 23388ft 525kts
30-Sep-20 17:11 39.419624 -120.251861 68 23404ft 526kts
30-Sep-20 17:12 39.440127 -120.067021 103 23396ft 517kts
30-Sep-20 17:13 39.368472 -119.917493 149 23376ft 486kts
30-Sep-20 17:14 39.244871 -119.867804 174 23380ft 451kts
30-Sep-20 17:15 39.131876 -119.844228 186 23384ft 371kts
30-Sep-20 17:16 39.048702 -119.886361 233 22235ft 312kts
30-Sep-20 17:17 38.998524 -119.974706 234 19138ft 304kts
30-Sep-20 17:18 38.949930 -120.061654 234 16301ft 300kts
30-Sep-20 17:19 38.878409 -120.095228 165 14456ft 309kts
30-Sep-20 17:20 38.808470 -120.039940 109 13139ft 317kts
30-Sep-20 17:20 38.828787 -119.953280 38 13108ft 316kts
30-Sep-20 17:22 38.907377 -119.894077 31 13117ft 254kts
30-Sep-20 17:23 38.966788 -119.845012 35 13023ft 258kts
30-Sep-20 17:23 39.014663 -119.799980 23 11819ft 253kts
30-Sep-20 17:25 39.091351 -119.771369 0 11125ft 253kts
30-Sep-20 17:26 39.160829 -119.770350 359 9722ft 250kts
30-Sep-20 17:26 39.216040 -119.770031 357 8317ft 214kts
30-Sep-20 17:27 39.267760 -119.769950 356 8123ft 181kts
30-Sep-20 17:29 39.326731 -119.769783 357 7504ft 180kts
30-Sep-20 17:29 39.368227 -119.769658 358 6831ft 177kts
30-Sep-20 17:30 39.410104 -119.769551 359 5835ft 138kts
30-Sep-20 17:31 39.448677 -119.769437 0 5234ft 139kts
30-Sep-20 17:32 39.487702 -119.769329 0 4425ft 133kts
30-Sep-20 17:33 39.503396 -119.770192 314 4416ft 5kts
30-Sep-20 17:34 39.505900 -119.772189 272 4419ft 9kts
30-Sep-20 17:35 39.506588 -119.772740 0 4419ft 0kts
30-Sep-20 17:36 39.506588 -119.772740 0 4419ft 0kts

Navigation Log

Ident Type
Flight plan parsing failed, navigation log unavailable